Time;durP1;ratioP1;P1;durP2;ratioP2;P2;SDS_P1;SDS_P2;PMS_P1;PMS_P2;Temp;Humidity;BMP_temperature;BMP_pressure;BME280_temperature;BME280_humidity;BME280_pressure;Samples;Min_cycle;Max_cycle;Signal;HPM_P1;HPM_P2
2022/06/23 00:01:53;;;;;;;1.20;0.98;;;22.00;59.10;;;;;;5077451;28;20506;-65
2022/06/23 00:04:23;;;;;;;0.70;0.70;;;22.00;58.90;;;;;;5077571;28;20116;-65
2022/06/23 00:06:54;;;;;;;1.88;1.05;;;22.00;59.50;;;;;;5084649;28;20498;-67
2022/06/23 00:09:45;;;;;;;2.22;1.48;;;21.90;59.30;;;;;;5075449;28;20579;-66
2022/06/23 00:12:33;;;;;;;2.15;1.08;;;21.90;59.40;;;;;;5074365;28;20688;-65
2022/06/23 00:14:58;;;;;;;1.40;1.20;;;21.90;59.50;;;;;;5085570;28;20028;-67
2022/06/23 00:17:45;;;;;;;1.67;1.13;;;21.80;59.70;;;;;;5077853;28;20394;-66
2022/06/23 00:20:15;;;;;;;1.65;1.27;;;21.80;59.80;;;;;;5073533;28;20036;-67
2022/06/23 00:22:45;;;;;;;2.40;1.88;;;21.80;59.90;;;;;;5073891;28;20070;-66
2022/06/23 00:25:28;;;;;;;1.77;1.40;;;21.70;60.00;;;;;;5073926;28;20020;-66
2022/06/23 00:27:54;;;;;;;2.25;1.65;;;21.70;59.90;;;;;;5080097;28;20032;-67
2022/06/23 00:30:25;;;;;;;1.85;1.50;;;21.60;60.00;;;;;;5072989;28;20506;-66
2022/06/23 00:32:51;;;;;;;1.33;1.23;;;21.60;60.20;;;;;;5082519;28;20043;-66
2022/06/23 00:35:18;;;;;;;1.27;1.10;;;21.60;60.30;;;;;;5082991;28;20420;-65
2022/06/23 00:37:50;;;;;;;3.20;2.15;;;21.60;60.40;;;;;;5077696;28;20044;-65
2022/06/23 00:40:20;;;;;;;1.52;1.25;;;21.50;60.40;;;;;;5073743;28;20024;-65
2022/06/23 00:43:02;;;;;;;2.70;2.03;;;21.50;60.40;;;;;;5090418;28;20032;-65
2022/06/23 00:45:47;;;;;;;1.25;1.10;;;21.60;60.40;;;;;;5073149;28;20083;-66
2022/06/23 00:48:59;;;;;;;2.28;1.70;;;21.50;60.50;;;;;;5076101;28;20025;-66
2022/06/23 00:51:36;;;;;;;2.45;1.80;;;21.50;60.70;;;;;;5046043;28;20028;-66
2022/06/23 00:54:11;;;;;;;1.08;1.02;;;21.40;60.70;;;;;;5046315;28;20025;-66
2022/06/23 00:56:51;;;;;;;2.03;1.70;;;21.40;60.90;;;;;;5059928;28;20032;-66
2022/06/23 00:59:43;;;;;;;3.10;2.05;;;21.30;60.80;;;;;;5077072;28;20032;-67
2022/06/23 01:02:23;;;;;;;1.48;1.38;;;21.30;61.10;;;;;;5098731;28;20108;-67
2022/06/23 01:05:01;;;;;;;1.80;1.45;;;21.20;61.40;;;;;;5086295;28;20033;-65
2022/06/23 01:07:44;;;;;;;1.25;0.93;;;21.10;61.50;;;;;;5074136;28;20040;-65
2022/06/23 01:10:26;;;;;;;1.73;1.42;;;21.10;61.50;;;;;;5088423;28;20052;-66
2022/06/23 01:13:12;;;;;;;1.73;1.17;;;21.00;61.60;;;;;;5084672;28;20374;-65
2022/06/23 01:15:50;;;;;;;1.98;1.25;;;21.00;61.60;;;;;;5074184;28;20442;-65
2022/06/23 01:18:40;;;;;;;2.03;1.20;;;21.00;61.50;;;;;;5074794;28;20027;-65
2022/06/23 01:21:20;;;;;;;1.60;1.50;;;21.00;61.50;;;;;;5082694;28;20036;-66
2022/06/23 01:24:12;;;;;;;2.53;1.77;;;21.00;61.70;;;;;;5089801;28;20088;-66
2022/06/23 01:26:59;;;;;;;1.15;1.05;;;20.90;61.80;;;;;;5064818;28;20344;-66
2022/06/23 01:29:49;;;;;;;3.20;1.88;;;20.90;61.80;;;;;;5070130;28;20391;-66
2022/06/23 01:32:32;;;;;;;2.30;1.30;;;20.90;61.80;;;;;;5070492;28;20048;-66
2022/06/23 01:35:04;;;;;;;2.88;1.77;;;20.90;61.70;;;;;;5077768;28;20035;-66
2022/06/23 01:37:41;;;;;;;1.45;1.35;;;20.80;61.70;;;;;;5075533;28;20159;-65
2022/06/23 01:40:41;;;;;;;2.47;1.85;;;20.90;61.70;;;;;;5104328;27;20020;-65
2022/06/23 01:43:15;;;;;;;1.85;1.00;;;20.90;61.80;;;;;;5078388;28;20020;-67
2022/06/23 01:45:58;;;;;;;1.55;1.17;;;20.80;61.70;;;;;;5082853;28;20344;-66
2022/06/23 01:48:53;;;;;;;1.85;1.25;;;20.80;61.90;;;;;;5090667;28;20039;-65
2022/06/23 01:51:27;;;;;;;1.85;1.50;;;20.80;61.90;;;;;;5077577;28;20506;-66
2022/06/23 01:54:12;;;;;;;4.22;1.77;;;20.70;62.00;;;;;;5074768;28;20081;-66
2022/06/23 01:57:01;;;;;;;1.48;1.33;;;20.70;62.10;;;;;;5079649;28;20025;-65
2022/06/23 01:59:51;;;;;;;1.92;1.40;;;20.60;62.00;;;;;;5095457;28;20032;-67
2022/06/23 02:02:53;;;;;;;3.67;1.90;;;20.70;62.20;;;;;;5085382;28;20023;-67
2022/06/23 02:05:47;;;;;;;1.43;1.17;;;20.60;62.20;;;;;;5063484;28;20036;-65
2022/06/23 02:08:30;;;;;;;1.55;1.45;;;20.60;62.30;;;;;;5087677;28;20031;-67
2022/06/23 02:11:33;;;;;;;2.38;1.65;;;20.60;62.40;;;;;;5074686;28;20457;-66
2022/06/23 02:14:27;;;;;;;1.33;1.23;;;20.60;62.40;;;;;;5077307;28;20039;-65
2022/06/23 02:17:10;;;;;;;2.75;1.58;;;20.50;62.20;;;;;;5073579;28;20033;-66
2022/06/23 02:19:44;;;;;;;3.70;1.40;;;20.50;62.40;;;;;;5075989;28;20012;-66
2022/06/23 02:22:15;;;;;;;3.25;2.08;;;20.50;62.40;;;;;;5075410;28;20028;-66
2022/06/23 02:24:52;;;;;;;1.10;1.08;;;20.50;62.30;;;;;;5082215;28;20099;-67
2022/06/23 02:27:20;;;;;;;1.92;1.23;;;20.50;62.30;;;;;;5081356;28;20089;-67
2022/06/23 02:30:05;;;;;;;1.95;1.42;;;20.40;62.30;;;;;;5086895;28;20054;-66
2022/06/23 02:32:54;;;;;;;1.80;1.25;;;20.50;62.30;;;;;;5085395;28;20062;-65
2022/06/23 02:35:30;;;;;;;3.47;1.63;;;20.40;62.20;;;;;;5073686;28;20060;-66
2022/06/23 02:38:07;;;;;;;1.63;1.52;;;20.40;62.20;;;;;;5082316;28;20381;-67
2022/06/23 02:40:44;;;;;;;1.40;1.30;;;20.40;62.20;;;;;;5074877;28;20018;-66
2022/06/23 02:43:14;;;;;;;1.25;1.15;;;20.40;62.20;;;;;;5074900;28;20028;-67
2022/06/23 02:45:46;;;;;;;2.13;1.63;;;20.40;62.10;;;;;;5076475;28;20117;-65
2022/06/23 02:48:27;;;;;;;2.35;1.50;;;20.40;62.10;;;;;;5085582;28;20510;-66
2022/06/23 02:51:01;;;;;;;2.00;1.33;;;20.30;62.10;;;;;;5086585;28;20027;-66
2022/06/23 02:53:35;;;;;;;3.53;1.33;;;20.30;62.20;;;;;;5071172;28;20040;-66
2022/06/23 02:56:26;;;;;;;2.20;1.23;;;20.30;62.20;;;;;;5076454;28;20427;-67
2022/06/23 02:59:01;;;;;;;1.73;1.35;;;20.30;62.00;;;;;;5076011;28;20475;-67
2022/06/23 03:01:50;;;;;;;1.30;1.20;;;20.30;62.00;;;;;;5078723;28;20490;-68
2022/06/23 03:04:23;;;;;;;1.45;1.30;;;20.30;62.00;;;;;;5083007;28;20538;-65
2022/06/23 03:07:02;;;;;;;1.27;1.05;;;20.30;62.00;;;;;;5072525;28;20028;-66
2022/06/23 03:09:46;;;;;;;1.60;1.48;;;20.30;62.10;;;;;;5084884;28;20497;-67
2022/06/23 03:12:20;;;;;;;2.10;1.50;;;20.20;62.00;;;;;;5080191;28;20535;-66
2022/06/23 03:15:03;;;;;;;2.15;1.13;;;20.20;62.00;;;;;;5068631;28;20109;-66
2022/06/23 03:17:52;;;;;;;1.40;1.23;;;20.20;61.90;;;;;;5072536;28;20028;-66
2022/06/23 03:20:59;;;;;;;1.55;1.17;;;20.30;62.00;;;;;;5083994;28;20024;-65
2022/06/23 03:23:43;;;;;;;2.40;1.40;;;20.20;61.90;;;;;;5029176;28;20112;-66
2022/06/23 03:26:36;;;;;;;3.60;1.35;;;20.20;62.00;;;;;;5071043;28;20495;-66
2022/06/23 03:29:28;;;;;;;1.27;0.98;;;20.20;62.20;;;;;;5086462;28;20047;-66
2022/06/23 03:32:01;;;;;;;1.40;1.30;;;20.20;62.20;;;;;;5085426;28;20032;-65
2022/06/23 03:34:36;;;;;;;1.85;1.73;;;20.10;62.10;;;;;;5071952;28;20032;-65
2022/06/23 03:37:07;;;;;;;2.20;1.30;;;20.10;62.30;;;;;;5078374;28;20212;-67
2022/06/23 03:42:41;;;;;;;3.13;1.55;;;20.10;62.20;;;;;;5090589;28;20055;-66
2022/06/23 03:45:18;;;;;;;3.47;1.63;;;20.10;62.30;;;;;;5083854;28;20031;-66
2022/06/23 03:47:56;;;;;;;2.13;1.52;;;20.10;62.30;;;;;;5077037;28;20035;-66
2022/06/23 03:50:31;;;;;;;2.08;1.48;;;20.10;62.40;;;;;;5096953;28;20039;-66
2022/06/23 03:53:01;;;;;;;2.78;1.58;;;20.10;62.40;;;;;;5085587;28;20025;-66
2022/06/23 03:55:41;;;;;;;2.15;1.30;;;20.10;62.40;;;;;;5086595;28;20627;-67
2022/06/23 03:58:19;;;;;;;1.77;1.40;;;20.10;62.40;;;;;;5071524;28;20475;-65
2022/06/23 04:01:03;;;;;;;6.65;1.52;;;20.10;62.30;;;;;;5079178;28;20043;-66
2022/06/23 04:03:48;;;;;;;0.90;0.90;;;20.10;62.30;;;;;;5089660;28;20065;-66
2022/06/23 04:06:21;;;;;;;1.63;1.27;;;20.10;62.20;;;;;;5083906;28;20048;-65
2022/06/23 04:08:57;;;;;;;2.45;1.40;;;20.10;62.10;;;;;;5093355;28;20023;-65
2022/06/23 04:11:45;;;;;;;1.42;1.33;;;20.20;62.10;;;;;;5075296;28;20436;-66
2022/06/23 04:14:32;;;;;;;1.90;1.40;;;20.20;62.00;;;;;;5068974;28;20049;-66
2022/06/23 04:17:17;;;;;;;1.98;1.73;;;20.20;62.00;;;;;;5098357;28;20020;-67
2022/06/23 04:20:08;;;;;;;1.80;1.27;;;20.20;61.90;;;;;;5082065;28;20556;-67
2022/06/23 04:23:04;;;;;;;3.28;1.80;;;20.30;62.00;;;;;;5080554;28;20498;-66
2022/06/23 04:25:56;;;;;;;1.42;1.27;;;20.30;61.90;;;;;;5083601;28;20040;-66
2022/06/23 04:28:30;;;;;;;4.13;1.25;;;20.30;61.70;;;;;;5088822;28;20110;-66
2022/06/23 04:30:58;;;;;;;1.73;1.42;;;20.40;61.80;;;;;;5089761;28;20040;-66
2022/06/23 04:33:25;;;;;;;1.67;1.15;;;20.40;61.70;;;;;;5086250;28;20478;-65
2022/06/23 04:35:55;;;;;;;3.28;1.13;;;20.40;61.70;;;;;;5083970;28;20024;-65
2022/06/23 04:38:27;;;;;;;3.80;1.70;;;20.40;61.70;;;;;;5090818;28;20155;-67
2022/06/23 04:41:10;;;;;;;2.13;1.15;;;20.40;61.70;;;;;;5085438;28;20020;-67
2022/06/23 04:43:47;;;;;;;1.90;1.20;;;20.50;61.60;;;;;;5083235;28;20036;-66
2022/06/23 04:46:27;;;;;;;1.73;1.63;;;20.50;62.10;;;;;;5105285;27;20073;-66
2022/06/23 04:49:01;;;;;;;2.00;1.50;;;20.60;61.40;;;;;;5095084;28;20024;-67
2022/06/23 04:51:35;;;;;;;2.65;1.25;;;20.60;61.30;;;;;;5092566;28;20023;-65
2022/06/23 04:54:04;;;;;;;1.55;1.15;;;20.60;61.20;;;;;;5097141;28;20019;-65
2022/06/23 04:56:40;;;;;;;1.52;1.25;;;20.70;61.10;;;;;;5088007;28;20028;-66
2022/06/23 04:59:28;;;;;;;1.83;1.35;;;20.70;60.90;;;;;;5082912;28;20039;-67
2022/06/23 05:01:55;;;;;;;2.08;1.48;;;20.80;60.90;;;;;;5079385;28;20039;-67
2022/06/23 05:04:26;;;;;;;0.98;0.90;;;20.80;60.80;;;;;;5074134;28;20037;-66
2022/06/23 05:06:56;;;;;;;0.80;0.80;;;20.80;60.70;;;;;;5075238;28;20147;-66
2022/06/23 05:09:38;;;;;;;2.13;1.30;;;20.80;60.50;;;;;;5083228;28;20036;-66
2022/06/23 05:12:14;;;;;;;1.25;1.15;;;20.90;60.40;;;;;;5085240;28;20489;-67
2022/06/23 05:15:09;;;;;;;1.80;1.23;;;20.90;60.30;;;;;;5079203;28;20040;-66
2022/06/23 05:17:41;;;;;;;1.65;1.33;;;20.90;60.20;;;;;;5080958;28;20495;-65
2022/06/23 05:20:08;;;;;;;1.60;1.13;;;21.00;60.00;;;;;;5084882;28;20032;-66
2022/06/23 05:22:43;;;;;;;1.77;1.42;;;21.10;59.90;;;;;;5088336;28;20719;-67
2022/06/23 05:25:15;;;;;;;1.88;1.35;;;21.10;59.80;;;;;;5084669;28;20110;-65
2022/06/23 05:27:44;;;;;;;3.13;1.30;;;21.20;59.70;;;;;;5093475;28;20072;-67
2022/06/23 05:30:28;;;;;;;1.83;1.52;;;21.20;59.70;;;;;;5088998;28;20032;-65
2022/06/23 05:33:16;;;;;;;1.95;1.33;;;21.30;59.70;;;;;;5089493;28;20023;-68
2022/06/23 05:35:48;;;;;;;1.45;0.95;;;21.30;59.50;;;;;;5084186;28;20031;-67
2022/06/23 05:38:50;;;;;;;1.38;1.27;;;21.30;59.40;;;;;;5092940;28;20356;-65
2022/06/23 05:41:22;;;;;;;1.48;1.20;;;21.40;59.50;;;;;;5077298;28;20599;-65
2022/06/23 05:43:49;;;;;;;1.67;1.05;;;21.30;59.40;;;;;;5081476;28;20031;-66
2022/06/23 05:46:21;;;;;;;1.38;1.27;;;21.40;59.20;;;;;;5074180;28;20031;-65
2022/06/23 05:49:04;;;;;;;1.45;1.00;;;21.40;59.10;;;;;;5073446;28;20024;-66
2022/06/23 05:51:35;;;;;;;1.17;1.00;;;21.50;59.10;;;;;;5074872;28;20048;-68
2022/06/23 05:54:10;;;;;;;1.38;1.10;;;21.50;59.00;;;;;;5071566;28;20032;-67
2022/06/23 05:56:57;;;;;;;1.42;1.08;;;21.60;58.90;;;;;;5075198;28;20099;-66
2022/06/23 05:59:50;;;;;;;3.50;1.27;;;21.60;58.80;;;;;;5079529;28;20026;-67
2022/06/23 06:02:19;;;;;;;0.80;0.80;;;21.60;58.60;;;;;;5078248;28;20031;-67
2022/06/23 06:04:52;;;;;;;2.03;1.50;;;21.60;58.50;;;;;;5079718;28;20048;-67
2022/06/23 06:07:21;;;;;;;1.02;0.98;;;21.70;58.40;;;;;;5073205;28;20055;-68
2022/06/23 06:09:47;;;;;;;1.48;1.27;;;21.70;59.00;;;;;;5069801;28;20040;-68
2022/06/23 06:12:17;;;;;;;1.88;1.67;;;21.80;58.20;;;;;;5073902;28;20035;-67
2022/06/23 06:14:53;;;;;;;1.15;1.08;;;21.80;58.10;;;;;;5083378;28;20036;-66
2022/06/23 06:17:21;;;;;;;1.13;1.00;;;21.90;58.10;;;;;;5078525;28;20025;-66
2022/06/23 06:19:49;;;;;;;6.82;1.48;;;21.90;57.90;;;;;;5088053;28;20028;-66
2022/06/23 06:22:38;;;;;;;2.55;0.98;;;22.00;57.90;;;;;;5071962;28;20036;-66
2022/06/23 06:25:06;;;;;;;1.27;1.17;;;22.10;58.00;;;;;;5056481;28;20048;-66
2022/06/23 06:27:32;;;;;;;1.92;1.42;;;22.10;57.80;;;;;;5076257;28;20423;-67
2022/06/23 06:29:58;;;;;;;1.60;1.27;;;22.10;57.80;;;;;;5098951;28;20035;-68
2022/06/23 06:32:34;;;;;;;0.95;0.95;;;22.20;57.80;;;;;;5073933;28;20045;-67
2022/06/23 06:35:26;;;;;;;2.35;1.33;;;22.30;57.80;;;;;;5081027;28;20139;-66
2022/06/23 06:37:58;;;;;;;2.83;1.27;;;22.40;57.70;;;;;;5073378;28;20103;-66
2022/06/23 06:40:25;;;;;;;2.05;1.20;;;22.50;57.60;;;;;;5088982;28;20031;-66
2022/06/23 06:42:56;;;;;;;0.63;0.63;;;22.60;57.60;;;;;;5080735;28;20115;-68
2022/06/23 06:45:29;;;;;;;1.00;1.00;;;22.70;57.50;;;;;;5073007;28;20031;-68
2022/06/23 06:47:55;;;;;;;1.33;0.90;;;22.70;57.30;;;;;;5081304;28;20020;-67
2022/06/23 06:50:41;;;;;;;1.38;1.23;;;22.90;57.20;;;;;;5085961;28;20068;-67
2022/06/23 06:53:20;;;;;;;2.08;1.08;;;22.90;57.00;;;;;;5103798;27;20058;-67
2022/06/23 06:55:54;;;;;;;1.92;1.00;;;22.90;56.90;;;;;;5076994;28;20063;-68
2022/06/23 06:58:49;;;;;;;4.32;1.20;;;23.00;56.80;;;;;;5078586;28;20032;-66
2022/06/23 07:01:20;;;;;;;1.30;1.20;;;23.10;56.80;;;;;;5084378;28;20032;-66
2022/06/23 07:03:48;;;;;;;0.90;0.90;;;23.10;56.70;;;;;;5081762;28;20019;-66
2022/06/23 07:06:35;;;;;;;1.50;1.40;;;23.20;56.60;;;;;;5071808;28;20078;-68
2022/06/23 07:09:24;;;;;;;2.10;1.05;;;23.30;56.60;;;;;;5077947;28;20031;-66
2022/06/23 07:12:00;;;;;;;1.05;1.05;;;23.30;56.40;;;;;;5072284;28;20151;-68
2022/06/23 07:14:33;;;;;;;1.38;1.00;;;23.40;56.30;;;;;;5077845;28;20561;-66
2022/06/23 07:17:05;;;;;;;1.23;1.02;;;23.50;56.20;;;;;;5083462;28;20103;-67
2022/06/23 07:19:35;;;;;;;;;;;23.60;56.00;;;;;;5087241;28;20034;-66
2022/06/23 07:22:16;;;;;;;1.02;0.90;;;23.70;56.40;;;;;;5082809;28;19908;-65
2022/06/23 07:25:01;;;;;;;1.52;0.95;;;23.80;55.70;;;;;;5077573;28;20037;-67
2022/06/23 07:27:44;;;;;;;1.50;1.40;;;23.90;55.60;;;;;;5086573;28;20040;-67
2022/06/23 07:30:25;;;;;;;1.40;1.20;;;24.00;55.60;;;;;;5093250;28;20551;-66
2022/06/23 07:33:02;;;;;;;0.80;0.80;;;24.10;55.30;;;;;;5079102;28;20032;-66
2022/06/23 07:35:28;;;;;;;1.05;0.95;;;24.20;55.10;;;;;;5085693;28;20053;-67
2022/06/23 07:38:25;;;;;;;1.27;0.90;;;24.30;55.00;;;;;;5089778;28;20592;-66
2022/06/23 07:40:57;;;;;;;1.00;0.90;;;24.40;54.90;;;;;;5045978;28;20139;-65
2022/06/23 07:43:28;;;;;;;1.85;0.90;;;24.50;54.70;;;;;;5078926;28;20028;-68
2022/06/23 07:45:57;;;;;;;1.42;1.25;;;24.60;54.60;;;;;;5090102;28;20036;-67
2022/06/23 07:48:24;;;;;;;0.93;0.85;;;24.70;54.60;;;;;;5074665;28;20040;-67
2022/06/23 07:50:50;;;;;;;0.90;0.90;;;24.70;54.40;;;;;;5072193;28;20043;-67
2022/06/23 07:53:46;;;;;;;1.52;1.42;;;24.80;54.30;;;;;;5078635;28;20367;-67
2022/06/23 07:56:21;;;;;;;2.00;1.13;;;24.90;54.30;;;;;;5094161;28;20097;-67
2022/06/23 07:58:52;;;;;;;1.42;1.33;;;25.00;54.10;;;;;;5087457;28;20028;-66
2022/06/23 08:01:22;;;;;;;2.85;0.98;;;25.10;54.00;;;;;;5087006;28;20144;-68
2022/06/23 08:04:08;;;;;;;1.60;1.13;;;25.20;53.80;;;;;;5085039;28;20068;-67
2022/06/23 08:06:35;;;;;;;1.08;0.98;;;25.30;53.70;;;;;;5071603;28;20251;-67
2022/06/23 08:09:07;;;;;;;1.23;1.13;;;25.30;53.60;;;;;;5076758;28;20099;-68
2022/06/23 08:14:30;;;;;;;2.03;1.35;;;25.50;53.50;;;;;;5076217;28;20085;-67
2022/06/23 08:16:55;;;;;;;2.83;1.25;;;25.60;53.40;;;;;;5082492;28;20518;-66
2022/06/23 08:19:33;;;;;;;0.90;0.90;;;25.70;53.10;;;;;;5084495;28;20040;-67
2022/06/23 08:22:05;;;;;;;1.98;1.38;;;25.80;53.20;;;;;;5087257;28;20077;-66
2022/06/23 08:24:32;;;;;;;2.17;1.50;;;25.90;53.10;;;;;;5079466;28;20441;-67
2022/06/23 08:27:05;;;;;;;2.92;1.40;;;26.00;53.00;;;;;;5072446;28;20133;-68
2022/06/23 08:29:36;;;;;;;1.45;1.35;;;26.10;52.90;;;;;;5075061;28;20081;-67
2022/06/23 08:32:02;;;;;;;1.23;1.10;;;26.20;52.70;;;;;;5101017;28;20400;-66
2022/06/23 08:34:33;;;;;;;2.85;1.38;;;26.30;52.70;;;;;;5070999;28;20036;-66
2022/06/23 08:37:21;;;;;;;2.35;1.70;;;26.30;52.60;;;;;;5071078;28;20453;-66
2022/06/23 08:39:58;;;;;;;1.17;1.10;;;26.40;52.60;;;;;;5083281;28;20017;-66
2022/06/23 08:42:48;;;;;;;1.17;0.98;;;26.60;52.60;;;;;;5069668;28;20032;-66
2022/06/23 08:45:29;;;;;;;1.10;1.00;;;26.70;52.40;;;;;;5080687;28;20379;-67
2022/06/23 08:48:07;;;;;;;0.88;0.73;;;26.80;52.30;;;;;;5073584;28;20084;-67
2022/06/23 08:50:56;;;;;;;0.90;0.82;;;26.90;52.30;;;;;;5083555;28;20028;-65
2022/06/23 08:53:43;;;;;;;1.45;1.35;;;27.00;52.20;;;;;;5082969;28;20332;-66
2022/06/23 08:56:26;;;;;;;1.73;1.02;;;27.20;52.30;;;;;;5096309;28;20085;-66
2022/06/23 08:59:20;;;;;;;0.80;0.80;;;27.30;52.00;;;;;;5085711;28;20099;-65
2022/06/23 09:02:08;;;;;;;1.20;1.02;;;27.40;51.80;;;;;;5058663;28;20048;-67
2022/06/23 09:04:49;;;;;;;5.00;2.38;;;27.50;51.60;;;;;;5083979;28;20038;-67
2022/06/23 09:07:36;;;;;;;6.72;2.03;;;27.60;51.60;;;;;;5084872;28;20077;-66
2022/06/23 09:10:29;;;;;;;1.90;1.50;;;27.60;51.60;;;;;;5074282;28;20344;-67
2022/06/23 09:13:13;;;;;;;6.68;2.22;;;27.80;51.70;;;;;;5070842;28;20039;-65
2022/06/23 09:15:57;;;;;;;3.90;2.15;;;27.80;51.50;;;;;;5068919;28;20028;-67
2022/06/23 09:19:00;;;;;;;1.35;0.95;;;28.00;51.60;;;;;;5074819;28;20035;-67
2022/06/23 09:21:59;;;;;;;3.10;1.73;;;28.10;51.40;;;;;;5074841;28;20028;-68
2022/06/23 09:24:42;;;;;;;4.13;1.80;;;28.30;51.30;;;;;;5085153;28;20558;-67
2022/06/23 09:27:20;;;;;;;2.25;1.88;;;28.40;51.00;;;;;;5078463;28;20029;-67
2022/06/23 09:30:11;;;;;;;1.60;1.50;;;28.50;50.90;;;;;;5074987;28;20088;-67
2022/06/23 09:32:43;;;;;;;2.37;1.83;;;28.60;50.70;;;;;;5068831;28;20035;-67
2022/06/23 09:35:30;;;;;;;5.15;2.03;;;28.70;50.70;;;;;;5072435;28;20291;-67
2022/06/23 09:38:27;;;;;;;2.33;1.52;;;28.80;50.30;;;;;;5078998;28;20396;-67
2022/06/23 09:41:14;;;;;;;2.35;1.77;;;28.80;49.90;;;;;;5077904;28;20031;-67
2022/06/23 09:44:01;;;;;;;1.42;1.17;;;28.90;49.80;;;;;;5079972;28;20020;-65
2022/06/23 09:46:45;;;;;;;2.13;1.52;;;29.00;49.90;;;;;;5075512;28;20787;-65
2022/06/23 09:49:58;;;;;;;1.50;0.95;;;29.10;49.50;;;;;;5078315;28;20046;-67
2022/06/23 09:52:41;;;;;;;0.98;0.80;;;29.30;49.60;;;;;;5009079;28;20046;-66
2022/06/23 09:55:18;;;;;;;1.27;1.17;;;29.40;49.20;;;;;;5080286;28;20043;-65
2022/06/23 09:58:07;;;;;;;1.08;0.98;;;29.60;49.10;;;;;;5070173;28;20029;-66
2022/06/23 10:01:08;;;;;;;1.38;1.20;;;29.70;49.00;;;;;;5083083;28;20034;-65
2022/06/23 10:03:34;;;;;;;0.88;0.88;;;29.80;48.70;;;;;;5073283;28;20033;-66
2022/06/23 10:06:46;;;;;;;0.77;0.70;;;29.90;48.70;;;;;;5084720;28;20399;-67
2022/06/23 10:09:37;;;;;;;1.23;0.90;;;30.00;48.70;;;;;;5088576;28;20059;-64
2022/06/23 10:12:39;;;;;;;0.87;0.87;;;30.00;48.00;;;;;;5077208;28;20119;-66
2022/06/23 10:15:14;;;;;;;1.13;1.08;;;30.10;48.00;;;;;;5078289;28;20051;-65
2022/06/23 10:17:45;;;;;;;3.45;1.10;;;30.20;47.90;;;;;;5094602;28;20027;-66
2022/06/23 10:20:14;;;;;;;;;;;30.40;48.00;;;;;;5085727;28;20412;-65
2022/06/23 10:23:09;;;;;;;2.20;1.65;;;30.60;47.60;;;;;;5084859;28;19990;-66
2022/06/23 10:26:12;;;;;;;0.98;0.90;;;30.50;47.20;;;;;;5083917;28;20056;-66
2022/06/23 10:29:00;;;;;;;0.90;0.90;;;30.50;47.40;;;;;;5094165;28;20036;-66
2022/06/23 10:31:35;;;;;;;1.30;1.20;;;30.70;47.60;;;;;;5085050;28;20036;-66
2022/06/23 10:34:35;;;;;;;1.40;1.30;;;30.90;47.40;;;;;;5086533;28;20077;-66
2022/06/23 10:37:27;;;;;;;1.70;1.25;;;31.00;47.20;;;;;;5086465;28;20023;-66
2022/06/23 10:40:22;;;;;;;1.23;0.90;;;31.10;46.90;;;;;;5089531;28;20017;-66
2022/06/23 10:43:08;;;;;;;1.15;1.05;;;31.10;47.20;;;;;;5090397;28;20023;-66
2022/06/23 10:46:18;;;;;;;1.90;1.25;;;31.20;47.10;;;;;;5081443;28;20751;-66
2022/06/23 10:48:54;;;;;;;1.33;1.13;;;31.40;47.00;;;;;;5003757;28;20045;-65
2022/06/23 10:51:35;;;;;;;1.25;1.13;;;31.50;46.50;;;;;;5068742;28;20051;-67
2022/06/23 10:54:28;;;;;;;4.32;1.40;;;31.60;46.40;;;;;;5086781;28;20032;-67
2022/06/23 10:57:17;;;;;;;0.93;0.93;;;31.70;46.60;;;;;;5089803;28;20155;-66
2022/06/23 10:59:55;;;;;;;1.38;1.10;;;32.00;46.40;;;;;;5086323;28;20039;-67
2022/06/23 11:02:29;;;;;;;1.35;1.20;;;32.20;45.90;;;;;;5081779;28;20077;-64
2022/06/23 11:05:26;;;;;;;2.10;1.33;;;32.50;45.70;;;;;;5078230;28;20056;-65
2022/06/23 11:08:13;;;;;;;1.08;1.00;;;32.60;44.80;;;;;;5079070;28;20428;-68
2022/06/23 11:10:45;;;;;;;1.35;1.05;;;32.70;44.20;;;;;;5084337;28;20032;-67
2022/06/23 11:13:38;;;;;;;1.73;1.27;;;32.70;43.90;;;;;;5080371;28;20047;-65
2022/06/23 11:16:16;;;;;;;1.08;1.00;;;32.50;43.80;;;;;;5084665;28;20483;-66
2022/06/23 11:18:55;;;;;;;1.50;0.90;;;32.50;43.90;;;;;;5072680;28;20085;-66
2022/06/23 11:21:24;;;;;;;1.00;0.90;;;32.60;44.00;;;;;;5082847;28;20032;-67
2022/06/23 11:24:04;;;;;;;3.85;1.27;;;32.70;43.90;;;;;;5081936;28;20024;-68
2022/06/23 11:26:55;;;;;;;0.73;0.73;;;32.90;43.60;;;;;;5084559;28;20081;-65
2022/06/23 11:29:24;;;;;;;1.48;1.35;;;33.10;43.60;;;;;;5077647;28;20364;-66
2022/06/23 11:31:52;;;;;;;1.50;1.40;;;33.20;42.50;;;;;;5071473;28;20032;-67
2022/06/23 11:34:30;;;;;;;1.38;1.00;;;33.30;43.30;;;;;;5094167;28;20032;-68
2022/06/23 11:37:28;;;;;;;1.05;0.90;;;33.30;42.60;;;;;;5080764;28;20055;-67
2022/06/23 11:40:21;;;;;;;1.75;1.08;;;33.40;42.80;;;;;;5068095;28;20040;-68
2022/06/23 11:43:13;;;;;;;1.33;1.00;;;33.50;42.90;;;;;;5095839;28;20450;-67
2022/06/23 11:45:45;;;;;;;1.52;1.27;;;33.60;42.30;;;;;;5089228;28;20016;-67
2022/06/23 11:48:20;;;;;;;1.23;1.13;;;33.70;42.40;;;;;;5082336;28;20016;-67
2022/06/23 11:51:09;;;;;;;1.70;1.20;;;34.00;42.40;;;;;;5072099;28;20085;-67
2022/06/23 11:54:03;;;;;;;1.52;1.42;;;34.10;42.20;;;;;;5084133;28;20440;-65
2022/06/23 11:56:37;;;;;;;1.60;1.50;;;34.20;41.00;;;;;;5080296;28;20044;-65
2022/06/23 11:59:27;;;;;;;6.10;1.10;;;34.20;41.00;;;;;;5095052;28;20033;-66
2022/06/23 12:01:54;;;;;;;1.77;1.30;;;34.20;41.20;;;;;;5087643;28;20032;-66
2022/06/23 12:04:44;;;;;;;2.08;1.40;;;34.30;41.20;;;;;;5085010;28;20036;-67
2022/06/23 12:07:18;;;;;;;1.38;0.95;;;34.50;40.90;;;;;;5070988;28;20031;-65
2022/06/23 12:10:02;;;;;;;2.13;1.58;;;34.60;41.00;;;;;;5085062;28;20067;-65
2022/06/23 12:12:30;;;;;;;1.98;1.63;;;34.70;40.70;;;;;;5081795;28;20032;-65
2022/06/23 12:14:56;;;;;;;2.25;1.25;;;34.80;40.80;;;;;;5083744;28;20474;-65
2022/06/23 12:17:29;;;;;;;3.58;1.65;;;34.90;40.50;;;;;;5075222;28;20032;-66
2022/06/23 12:20:19;;;;;;;2.45;1.27;;;34.90;40.10;;;;;;5078789;28;20036;-66
2022/06/23 12:23:12;;;;;;;1.52;1.10;;;35.00;40.30;;;;;;5091336;28;20446;-65
2022/06/23 12:25:41;;;;;;;3.53;1.58;;;35.00;39.90;;;;;;5079072;28;20033;-66
2022/06/23 12:28:18;;;;;;;1.05;1.05;;;35.00;40.00;;;;;;5071746;28;20081;-66
2022/06/23 12:30:51;;;;;;;1.90;1.75;;;35.00;40.10;;;;;;5085553;28;20023;-66
2022/06/23 12:33:33;;;;;;;1.70;1.60;;;35.20;40.20;;;;;;5071983;28;20069;-66
2022/06/23 12:36:16;;;;;;;1.85;1.70;;;35.20;39.80;;;;;;5070609;28;20078;-65
2022/06/23 12:38:48;;;;;;;1.38;1.27;;;34.90;39.60;;;;;;5080283;28;20065;-66
2022/06/23 12:41:24;;;;;;;1.85;1.13;;;34.90;40.20;;;;;;5079678;28;20042;-65
2022/06/23 12:44:15;;;;;;;1.90;1.42;;;35.00;40.20;;;;;;5082504;28;20027;-65
2022/06/23 12:46:44;;;;;;;1.60;1.50;;;35.20;40.20;;;;;;5083873;28;20051;-65
2022/06/23 12:49:28;;;;;;;2.38;1.38;;;35.40;40.10;;;;;;5086575;28;20039;-66
2022/06/23 12:52:30;;;;;;;1.55;1.45;;;35.60;39.80;;;;;;5074152;28;20028;-65
2022/06/23 12:55:19;;;;;;;1.27;1.17;;;35.70;39.10;;;;;;5079923;28;20610;-66
2022/06/23 12:57:58;;;;;;;1.45;1.35;;;35.50;39.30;;;;;;5078304;28;20056;-67
2022/06/23 13:00:51;;;;;;;1.67;1.45;;;35.60;39.70;;;;;;5074598;28;20071;-67
2022/06/23 13:03:54;;;;;;;6.97;1.75;;;35.80;39.60;;;;;;5083257;28;20020;-66
2022/06/23 13:06:31;;;;;;;1.70;1.60;;;35.90;39.30;;;;;;5082421;28;20047;-66
2022/06/23 13:09:21;;;;;;;3.92;1.45;;;35.90;39.00;;;;;;5081765;28;20027;-68
2022/06/23 13:12:19;;;;;;;1.50;1.20;;;35.90;39.00;;;;;;5079976;28;20111;-68
2022/06/23 13:15:09;;;;;;;1.60;1.50;;;35.90;38.90;;;;;;5069230;28;20059;-66
2022/06/23 13:17:56;;;;;;;2.60;2.13;;;35.90;38.90;;;;;;5068059;28;20024;-65
2022/06/23 13:20:40;;;;;;;1.10;1.00;;;36.10;38.20;;;;;;5076933;28;20500;-65
2022/06/23 13:23:11;;;;;;;1.17;0.95;;;35.90;38.40;;;;;;5085166;28;20122;-68
2022/06/23 13:25:44;;;;;;;1.90;1.10;;;35.60;39.00;;;;;;5080251;28;20030;-66
2022/06/23 13:28:28;;;;;;;4.47;1.65;;;35.60;39.30;;;;;;5081625;28;20017;-66
2022/06/23 13:30:59;;;;;;;1.33;1.23;;;35.80;39.20;;;;;;5090383;28;20101;-65
2022/06/23 13:33:46;;;;;;;4.22;1.65;;;36.00;38.80;;;;;;5088632;28;20034;-66
2022/06/23 13:36:27;;;;;;;1.42;1.33;;;36.00;38.60;;;;;;5084503;28;20025;-65
2022/06/23 13:39:07;;;;;;;;;;;35.80;39.00;;;;;;5083079;28;20039;-65
2022/06/23 13:41:48;;;;;;;2.15;1.38;;;35.90;38.90;;;;;;5086721;28;19912;-65
2022/06/23 13:44:48;;;;;;;1.13;0.93;;;35.90;38.90;;;;;;5087651;28;20046;-65
2022/06/23 13:47:34;;;;;;;1.13;1.13;;;36.00;38.90;;;;;;5084752;28;20024;-65
2022/06/23 13:50:09;;;;;;;1.00;1.00;;;36.30;38.80;;;;;;5088057;28;20039;-66
2022/06/23 13:53:07;;;;;;;1.38;1.10;;;36.20;38.60;;;;;;5088872;28;20024;-68
2022/06/23 13:55:46;;;;;;;2.85;1.27;;;35.90;38.60;;;;;;5085661;28;20119;-66
2022/06/23 13:58:49;;;;;;;1.30;1.20;;;35.90;38.40;;;;;;5081539;28;20413;-65
2022/06/23 14:01:35;;;;;;;1.00;1.00;;;36.00;38.40;;;;;;5057006;28;20048;-65
2022/06/23 14:04:23;;;;;;;2.90;1.35;;;36.30;38.50;;;;;;5073853;28;20040;-66